Time;durP1;ratioP1;P1;durP2;ratioP2;P2;SDS_P1;SDS_P2;PMS_P1;PMS_P2;Temp;Humidity;BMP_temperature;BMP_pressure;BME280_temperature;BME280_humidity;BME280_pressure;Samples;Min_cycle;Max_cycle;Signal;HPM_P1;HPM_P2
2023/12/25 00:01:12;;;;;;;1.08;0.45;;;10.00;99.90;;;;;;6195276;23;20439;-75
2023/12/25 00:03:37;;;;;;;0.50;0.47;;;9.90;99.90;;;;;;6196695;23;20293;-76
2023/12/25 00:06:03;;;;;;;0.80;0.70;;;9.90;99.90;;;;;;6195541;23;20494;-78
2023/12/25 00:08:29;;;;;;;0.88;0.80;;;9.90;99.90;;;;;;6195193;23;20004;-77
2023/12/25 00:10:55;;;;;;;1.00;0.70;;;9.80;99.90;;;;;;6197671;23;20023;-78
2023/12/25 00:13:20;;;;;;;0.90;0.65;;;9.80;99.90;;;;;;6199190;23;20465;-77
2023/12/25 00:15:46;;;;;;;0.90;0.73;;;9.80;99.90;;;;;;6197152;23;20008;-78
2023/12/25 00:18:11;;;;;;;0.63;0.52;;;9.90;99.90;;;;;;6199606;23;20000;-78
2023/12/25 00:20:38;;;;;;;0.70;0.30;;;9.90;99.90;;;;;;6200531;23;20011;-80
2023/12/25 00:23:04;;;;;;;0.60;0.20;;;10.00;99.90;;;;;;6199471;23;20435;-79
2023/12/25 00:25:30;;;;;;;0.55;0.40;;;10.20;99.90;;;;;;6200705;23;20011;-79
2023/12/25 00:27:55;;;;;;;0.55;0.28;;;10.40;99.90;;;;;;6197063;23;20072;-80
2023/12/25 00:30:21;;;;;;;0.40;0.20;;;10.50;99.90;;;;;;6198596;23;20094;-78
2023/12/25 00:32:46;;;;;;;0.40;0.38;;;10.60;99.90;;;;;;6198012;23;20027;-73
2023/12/25 00:35:12;;;;;;;1.67;0.30;;;10.70;99.90;;;;;;6197510;23;20012;-74
2023/12/25 00:37:37;;;;;;;0.88;0.35;;;10.80;99.90;;;;;;6198111;23;20104;-73
2023/12/25 00:40:03;;;;;;;0.50;0.40;;;10.90;99.90;;;;;;6198417;23;20330;-71
2023/12/25 00:42:29;;;;;;;0.43;0.43;;;11.00;99.90;;;;;;6198171;23;20004;-76
2023/12/25 00:44:54;;;;;;;0.38;0.38;;;11.10;99.90;;;;;;6195999;23;20011;-79
2023/12/25 00:47:20;;;;;;;1.23;0.50;;;11.20;99.90;;;;;;6198009;23;20023;-75
2023/12/25 00:49:46;;;;;;;0.50;0.30;;;11.30;99.90;;;;;;6199034;23;20043;-73
2023/12/25 00:52:14;;;;;;;1.35;0.55;;;11.40;99.90;;;;;;6197175;23;20008;-75
2023/12/25 00:54:40;;;;;;;0.70;0.40;;;11.40;99.90;;;;;;6196804;23;20490;-78
2023/12/25 00:57:06;;;;;;;0.75;0.40;;;11.50;99.90;;;;;;6198967;23;20092;-78
2023/12/25 00:59:31;;;;;;;0.52;0.38;;;11.60;99.90;;;;;;6198096;23;20733;-77
2023/12/25 01:01:57;;;;;;;0.65;0.55;;;11.60;99.90;;;;;;6196948;23;20000;-69
2023/12/25 01:04:22;;;;;;;0.82;0.40;;;11.70;99.90;;;;;;6200040;23;20416;-65
2023/12/25 01:06:48;;;;;;;0.68;0.30;;;11.80;99.90;;;;;;6198955;23;20011;-71
2023/12/25 01:09:14;;;;;;;0.30;0.30;;;11.80;99.90;;;;;;6198532;23;20052;-70
2023/12/25 01:11:41;;;;;;;0.98;0.50;;;11.90;99.90;;;;;;6198310;23;20445;-70
2023/12/25 01:14:07;;;;;;;0.57;0.47;;;11.90;99.90;;;;;;6198157;23;20076;-67
2023/12/25 01:16:32;;;;;;;0.65;0.57;;;11.80;99.90;;;;;;6196288;23;20005;-66
2023/12/25 01:18:58;;;;;;;0.50;0.38;;;11.80;99.90;;;;;;6197570;23;20008;-71
2023/12/25 01:21:24;;;;;;;1.35;0.68;;;11.80;99.90;;;;;;6198475;23;20212;-67
2023/12/25 01:23:49;;;;;;;0.35;0.20;;;11.70;99.90;;;;;;6199459;23;20091;-67
2023/12/25 01:26:15;;;;;;;0.90;0.50;;;11.70;99.90;;;;;;6200679;23;20001;-70
2023/12/25 01:28:41;;;;;;;0.80;0.60;;;11.60;99.90;;;;;;6195860;23;20020;-73
2023/12/25 01:31:06;;;;;;;1.15;0.43;;;11.60;99.90;;;;;;6198295;23;20055;-71
2023/12/25 01:33:32;;;;;;;0.68;0.40;;;11.50;99.90;;;;;;6199890;23;20083;-67
2023/12/25 01:35:58;;;;;;;0.68;0.68;;;11.40;99.90;;;;;;6198463;23;20008;-71
2023/12/25 01:38:23;;;;;;;0.38;0.30;;;11.30;99.90;;;;;;6199147;23;20020;-71
2023/12/25 01:40:49;;;;;;;0.65;0.40;;;11.30;99.90;;;;;;6200409;23;20036;-72
2023/12/25 01:43:14;;;;;;;0.73;0.50;;;11.30;99.90;;;;;;6200922;23;20012;-71
2023/12/25 01:45:40;;;;;;;0.50;0.43;;;11.40;99.90;;;;;;6199506;23;19996;-67
2023/12/25 01:48:06;;;;;;;0.40;0.40;;;11.40;99.90;;;;;;6199040;23;20020;-66
2023/12/25 01:50:32;;;;;;;1.42;0.32;;;11.40;99.90;;;;;;6198405;23;20020;-66
2023/12/25 01:52:58;;;;;;;0.85;0.45;;;11.30;99.90;;;;;;6199619;23;20012;-70
2023/12/25 01:55:23;;;;;;;0.90;0.75;;;11.30;99.90;;;;;;6200421;23;20012;-67
2023/12/25 01:57:49;;;;;;;0.77;0.40;;;11.30;99.90;;;;;;6201602;23;20078;-71
2023/12/25 02:00:15;;;;;;;1.25;0.52;;;11.30;99.90;;;;;;6200586;23;20009;-65
2023/12/25 02:02:41;;;;;;;1.63;0.50;;;11.40;99.90;;;;;;6202109;23;20009;-67
2023/12/25 02:05:08;;;;;;;0.70;0.47;;;11.40;99.90;;;;;;6201541;23;20004;-70
2023/12/25 02:07:37;;;;;;;2.15;0.70;;;11.50;99.90;;;;;;6200326;23;20024;-72
2023/12/25 02:10:03;;;;;;;0.77;0.35;;;11.40;99.90;;;;;;6196507;23;20043;-71
2023/12/25 02:12:28;;;;;;;0.30;0.30;;;11.40;99.90;;;;;;6201405;23;20370;-72
2023/12/25 02:14:54;;;;;;;1.50;0.70;;;11.40;99.90;;;;;;6201842;23;20102;-66
2023/12/25 02:17:20;;;;;;;0.85;0.60;;;11.40;99.90;;;;;;6202581;23;20044;-77
2023/12/25 02:19:46;;;;;;;1.15;0.68;;;11.40;99.90;;;;;;6199883;23;20081;-75
2023/12/25 02:22:12;;;;;;;1.30;0.90;;;11.30;99.90;;;;;;6202676;23;20028;-74
2023/12/25 02:24:41;;;;;;;1.17;0.90;;;11.30;99.90;;;;;;6199411;23;20012;-74
2023/12/25 02:27:07;;;;;;;1.88;1.00;;;11.20;99.90;;;;;;6200429;23;20107;-73
2023/12/25 02:29:34;;;;;;;0.95;0.85;;;11.10;99.90;;;;;;6198774;23;20012;-77
2023/12/25 02:31:59;;;;;;;1.20;1.10;;;11.10;99.90;;;;;;6202471;23;20047;-72
2023/12/25 02:34:25;;;;;;;2.95;1.52;;;11.00;99.90;;;;;;6201205;23;20069;-71
2023/12/25 02:36:51;;;;;;;2.90;1.42;;;11.10;99.90;;;;;;6194035;23;20085;-68
2023/12/25 02:39:17;;;;;;;1.70;1.02;;;11.00;99.90;;;;;;6191619;23;20015;-65
2023/12/25 02:41:43;;;;;;;3.20;1.40;;;10.90;99.90;;;;;;6196649;23;20012;-70
2023/12/25 02:44:09;;;;;;;2.17;0.93;;;10.90;99.90;;;;;;6200325;23;20013;-70
2023/12/25 02:46:34;;;;;;;1.55;1.10;;;10.90;99.90;;;;;;6200657;23;20547;-72
2023/12/25 02:49:00;;;;;;;0.82;0.80;;;10.90;99.90;;;;;;6202062;23;20083;-72
2023/12/25 02:51:25;;;;;;;1.10;1.00;;;10.90;99.90;;;;;;6198201;23;20009;-71
2023/12/25 02:53:51;;;;;;;2.03;0.90;;;10.90;99.90;;;;;;6200929;23;20001;-76
2023/12/25 02:56:17;;;;;;;2.95;1.00;;;11.00;99.90;;;;;;6200592;23;20004;-77
2023/12/25 02:58:42;;;;;;;1.13;0.85;;;11.00;99.90;;;;;;6199976;23;20051;-73
2023/12/25 03:01:08;;;;;;;1.63;1.10;;;11.10;99.90;;;;;;6200888;23;20008;-72
2023/12/25 03:03:33;;;;;;;1.02;0.93;;;11.10;99.90;;;;;;6202559;23;20028;-74
2023/12/25 03:05:59;;;;;;;1.95;1.05;;;11.10;99.90;;;;;;6194018;23;20076;-74
2023/12/25 03:08:24;;;;;;;1.67;1.25;;;11.10;99.90;;;;;;6201430;23;20009;-75
2023/12/25 03:10:50;;;;;;;2.50;1.30;;;11.10;99.90;;;;;;6200971;23;20020;-75
2023/12/25 03:13:16;;;;;;;1.70;1.30;;;11.00;99.90;;;;;;6201929;23;20005;-74
2023/12/25 03:15:41;;;;;;;1.98;1.25;;;10.90;99.90;;;;;;6199757;23;20466;-72
2023/12/25 03:18:07;;;;;;;1.48;0.82;;;10.90;99.90;;;;;;6200058;23;20246;-72
2023/12/25 03:20:32;;;;;;;2.15;1.27;;;10.80;99.90;;;;;;6201770;23;20059;-73
2023/12/25 03:22:58;;;;;;;1.13;0.70;;;10.80;99.90;;;;;;6200760;23;20401;-73
2023/12/25 03:25:24;;;;;;;1.05;0.82;;;10.80;99.90;;;;;;6202146;23;20011;-74
2023/12/25 03:27:49;;;;;;;5.78;1.25;;;10.80;99.90;;;;;;6201458;23;20494;-76
2023/12/25 03:30:15;;;;;;;1.52;1.00;;;10.80;99.90;;;;;;6201230;23;20023;-72
2023/12/25 03:32:41;;;;;;;2.15;0.70;;;10.80;99.90;;;;;;6200026;23;20339;-72
2023/12/25 03:35:07;;;;;;;0.85;0.63;;;10.80;99.90;;;;;;6200191;23;20004;-74
2023/12/25 03:37:32;;;;;;;1.75;0.70;;;10.80;99.90;;;;;;6201116;23;20072;-72
2023/12/25 03:39:58;;;;;;;1.40;0.93;;;10.80;99.90;;;;;;6198704;23;20016;-74
2023/12/25 03:42:24;;;;;;;0.95;0.77;;;10.90;99.90;;;;;;6200868;23;20020;-76
2023/12/25 03:44:49;;;;;;;0.88;0.70;;;10.90;99.90;;;;;;6201193;23;20009;-73
2023/12/25 03:47:15;;;;;;;1.45;0.47;;;10.90;99.90;;;;;;6199766;23;20413;-70
2023/12/25 03:49:41;;;;;;;1.45;0.50;;;10.90;99.90;;;;;;6196121;23;20397;-74
2023/12/25 03:52:06;;;;;;;1.17;0.60;;;11.00;99.90;;;;;;6202394;23;20139;-75
2023/12/25 03:54:32;;;;;;;1.00;0.55;;;11.00;99.90;;;;;;6198594;23;20008;-74
2023/12/25 03:56:57;;;;;;;1.48;0.50;;;11.10;99.90;;;;;;6201594;23;20004;-77
2023/12/25 03:59:23;;;;;;;0.73;0.60;;;11.20;99.90;;;;;;6201093;23;20438;-69
2023/12/25 04:01:49;;;;;;;0.70;0.50;;;11.20;99.90;;;;;;6201224;23;20485;-77
2023/12/25 04:04:14;;;;;;;2.42;0.60;;;11.20;99.90;;;;;;6200121;23;20071;-70
2023/12/25 04:06:40;;;;;;;1.20;0.65;;;11.30;99.90;;;;;;6200360;23;20005;-68
2023/12/25 04:09:06;;;;;;;1.55;0.68;;;11.30;99.90;;;;;;6198456;23;20000;-67
2023/12/25 04:11:31;;;;;;;1.13;0.80;;;11.30;99.90;;;;;;6199989;23;20009;-67
2023/12/25 04:13:57;;;;;;;1.73;0.77;;;11.40;99.90;;;;;;6200363;23;20004;-66
2023/12/25 04:16:25;;;;;;;1.63;0.60;;;11.40;99.90;;;;;;6202159;23;20031;-66
2023/12/25 04:18:55;;;;;;;2.22;0.43;;;11.50;99.90;;;;;;6201725;23;20001;-67
2023/12/25 04:21:21;;;;;;;1.10;0.70;;;11.50;99.90;;;;;;6196608;23;20013;-66
2023/12/25 04:23:47;;;;;;;1.27;0.80;;;11.50;99.90;;;;;;6201615;23;20000;-65
2023/12/25 04:26:13;;;;;;;1.17;0.75;;;11.40;99.90;;;;;;6199744;23;20000;-73
2023/12/25 04:28:39;;;;;;;0.65;0.65;;;11.50;99.90;;;;;;6200330;23;20007;-80
2023/12/25 04:31:04;;;;;;;1.30;0.55;;;11.50;99.90;;;;;;6199419;23;20100;-73
2023/12/25 04:33:30;;;;;;;1.77;0.47;;;11.60;99.90;;;;;;6200619;23;20004;-74
2023/12/25 04:35:55;;;;;;;0.65;0.38;;;11.60;99.90;;;;;;6198749;23;20013;-74
2023/12/25 04:38:21;;;;;;;0.50;0.50;;;11.70;99.90;;;;;;6199385;23;20087;-74
2023/12/25 04:40:47;;;;;;;1.95;0.70;;;11.80;99.90;;;;;;6196940;23;20012;-73
2023/12/25 04:43:12;;;;;;;1.27;0.50;;;11.80;99.90;;;;;;6196447;23;20099;-72
2023/12/25 04:45:38;;;;;;;1.35;0.40;;;11.90;99.90;;;;;;6198005;23;20092;-74
2023/12/25 04:48:04;;;;;;;2.47;0.57;;;11.80;99.90;;;;;;6198721;23;20020;-74
2023/12/25 04:50:30;;;;;;;0.70;0.52;;;11.80;99.90;;;;;;6197033;23;20009;-74
2023/12/25 04:52:56;;;;;;;1.27;1.15;;;11.80;99.90;;;;;;6196068;23;20004;-79
2023/12/25 04:55:21;;;;;;;1.33;0.45;;;11.80;99.90;;;;;;6197786;23;20019;-76
2023/12/25 04:57:47;;;;;;;1.65;0.50;;;11.90;99.90;;;;;;6197126;23;20405;-74
2023/12/25 05:00:13;;;;;;;0.77;0.70;;;12.00;99.90;;;;;;6197801;23;20089;-74
2023/12/25 05:02:39;;;;;;;0.40;0.40;;;12.00;99.90;;;;;;6200432;23;20004;-74
2023/12/25 05:05:04;;;;;;;0.22;0.22;;;12.00;99.90;;;;;;6199607;23;20009;-73
2023/12/25 05:07:30;;;;;;;1.17;0.43;;;12.00;99.90;;;;;;6199889;23;20075;-77
2023/12/25 05:09:56;;;;;;;0.60;0.50;;;12.10;99.90;;;;;;6199078;23;20013;-75
2023/12/25 05:12:21;;;;;;;0.40;0.35;;;12.10;99.90;;;;;;6198674;23;20000;-75
2023/12/25 05:14:47;;;;;;;0.20;0.20;;;12.20;99.90;;;;;;6199871;23;20006;-77
2023/12/25 05:17:12;;;;;;;0.80;0.35;;;12.20;99.90;;;;;;6202184;23;20004;-76
2023/12/25 05:19:38;;;;;;;0.70;0.20;;;12.20;99.90;;;;;;6199968;23;20016;-69
2023/12/25 05:22:05;;;;;;;0.90;0.47;;;12.30;99.90;;;;;;6200941;23;20004;-73
2023/12/25 05:24:31;;;;;;;0.90;0.17;;;12.30;99.90;;;;;;6196930;23;20004;-69
2023/12/25 05:26:57;;;;;;;1.23;0.57;;;12.30;99.90;;;;;;6201250;23;20011;-67
2023/12/25 05:29:22;;;;;;;0.30;0.17;;;12.40;99.90;;;;;;6200231;23;20051;-66
2023/12/25 05:31:48;;;;;;;1.15;0.28;;;12.30;99.90;;;;;;6200452;23;20020;-67
2023/12/25 05:34:13;;;;;;;0.30;0.20;;;12.40;99.90;;;;;;6202257;23;20458;-73
2023/12/25 05:36:39;;;;;;;0.35;0.20;;;12.30;99.90;;;;;;6202988;23;20004;-73
2023/12/25 05:39:04;;;;;;;1.55;0.20;;;12.40;99.90;;;;;;6201507;23;20012;-73
2023/12/25 05:41:30;;;;;;;0.85;0.20;;;12.30;99.90;;;;;;6201948;23;20035;-75
2023/12/25 05:43:55;;;;;;;3.38;0.40;;;12.40;99.90;;;;;;6201688;23;20010;-73
2023/12/25 05:46:21;;;;;;;0.40;0.10;;;12.40;99.90;;;;;;6202247;23;20036;-72
2023/12/25 05:48:47;;;;;;;0.20;0.20;;;12.30;99.90;;;;;;6203367;23;20009;-72
2023/12/25 05:51:12;;;;;;;2.00;0.40;;;12.40;99.90;;;;;;6200809;23;20505;-76
2023/12/25 05:53:38;;;;;;;1.00;0.20;;;12.50;99.90;;;;;;6203135;23;20108;-73
2023/12/25 05:56:04;;;;;;;0.95;0.20;;;12.50;99.90;;;;;;6201335;23;20346;-63
2023/12/25 05:58:29;;;;;;;0.65;0.20;;;12.40;99.90;;;;;;6201694;23;20001;-63
2023/12/25 06:00:55;;;;;;;0.10;0.10;;;12.50;99.90;;;;;;6202407;23;20004;-68
2023/12/25 06:03:20;;;;;;;0.13;0.13;;;12.50;99.90;;;;;;6198259;23;20009;-71
2023/12/25 06:05:46;;;;;;;0.20;0.20;;;12.50;99.90;;;;;;6198842;23;20047;-69
2023/12/25 06:08:12;;;;;;;2.05;0.20;;;12.50;99.90;;;;;;6199426;23;20072;-69
2023/12/25 06:10:37;;;;;;;2.38;0.20;;;12.50;99.90;;;;;;6198242;23;20563;-65
2023/12/25 06:13:03;;;;;;;2.42;0.32;;;12.50;99.90;;;;;;6199499;23;20036;-63
2023/12/25 06:15:29;;;;;;;0.55;0.10;;;12.50;99.90;;;;;;6198987;23;20089;-64
2023/12/25 06:17:54;;;;;;;0.20;0.13;;;12.50;99.90;;;;;;6200214;23;20636;-64
2023/12/25 06:20:24;;;;;;;0.00;0.00;;;12.50;99.90;;;;;;6198584;23;20553;-66
2023/12/25 06:22:51;;;;;;;0.30;0.10;;;12.50;99.90;;;;;;6199456;23;20119;-70
2023/12/25 06:25:16;;;;;;;0.32;0.20;;;12.50;99.90;;;;;;6199026;23;20081;-63
2023/12/25 06:27:42;;;;;;;1.40;0.10;;;12.50;99.90;;;;;;6198369;23;20004;-68
2023/12/25 06:30:08;;;;;;;0.65;0.10;;;12.50;99.90;;;;;;6200979;23;20119;-70
2023/12/25 06:32:33;;;;;;;0.47;0.17;;;12.50;99.90;;;;;;6201671;23;20061;-70
2023/12/25 06:34:59;;;;;;;0.73;0.28;;;12.40;99.90;;;;;;6202651;23;20020;-70
2023/12/25 06:37:24;;;;;;;0.95;0.20;;;12.40;99.90;;;;;;6203132;23;20541;-70
2023/12/25 06:39:50;;;;;;;1.38;0.00;;;12.40;99.90;;;;;;6202860;23;20004;-69
2023/12/25 06:42:15;;;;;;;0.20;0.10;;;12.40;99.90;;;;;;6198004;23;20742;-69
2023/12/25 06:44:41;;;;;;;1.38;0.10;;;12.50;99.90;;;;;;6202366;23;20181;-69
2023/12/25 06:47:07;;;;;;;0.30;0.00;;;12.50;99.90;;;;;;6201810;23;20017;-70
2023/12/25 06:49:32;;;;;;;0.13;0.05;;;12.50;99.90;;;;;;6201560;23;20038;-63
2023/12/25 06:51:59;;;;;;;0.10;0.10;;;12.60;99.90;;;;;;6197729;23;20051;-63
2023/12/25 06:54:25;;;;;;;0.73;0.10;;;12.60;99.90;;;;;;6196024;23;20009;-69
2023/12/25 06:56:51;;;;;;;1.73;0.93;;;12.60;99.90;;;;;;6197637;23;20009;-69
2023/12/25 06:59:16;;;;;;;0.30;0.30;;;12.50;99.90;;;;;;6200046;23;20235;-69
2023/12/25 07:01:43;;;;;;;0.35;0.20;;;12.50;99.90;;;;;;6200970;23;20354;-64
2023/12/25 07:04:11;;;;;;;0.73;0.22;;;12.60;99.90;;;;;;6201444;23;20271;-67
2023/12/25 07:06:36;;;;;;;0.40;0.30;;;12.60;99.90;;;;;;6202262;23;20092;-66
2023/12/25 07:09:02;;;;;;;7.28;6.68;;;12.60;99.90;;;;;;6201939;23;20047;-69
2023/12/25 07:11:27;;;;;;;0.25;0.20;;;12.50;99.90;;;;;;6202203;23;20013;-69
2023/12/25 07:13:56;;;;;;;0.22;0.10;;;12.50;99.90;;;;;;6201283;23;20056;-63
2023/12/25 07:16:25;;;;;;;0.15;0.10;;;12.40;99.90;;;;;;6201491;23;20187;-64
2023/12/25 07:18:52;;;;;;;0.13;0.10;;;12.50;99.90;;;;;;6202648;23;20043;-63
2023/12/25 07:21:18;;;;;;;0.10;0.10;;;12.60;99.90;;;;;;6201676;23;20016;-69
2023/12/25 07:23:44;;;;;;;0.63;0.10;;;12.60;99.90;;;;;;6203459;23;20011;-63
2023/12/25 07:26:09;;;;;;;1.23;0.20;;;12.50;99.90;;;;;;6201783;23;20011;-63
2023/12/25 07:28:35;;;;;;;0.65;0.10;;;12.60;99.90;;;;;;6203116;23;20382;-69
2023/12/25 07:31:01;;;;;;;0.10;0.10;;;12.60;99.90;;;;;;6200394;23;20012;-69
2023/12/25 07:33:27;;;;;;;0.00;0.00;;;12.60;99.90;;;;;;6200374;23;20315;-64
2023/12/25 07:35:53;;;;;;;0.10;0.05;;;12.60;99.90;;;;;;6201551;23;20004;-66
2023/12/25 07:38:20;;;;;;;0.32;0.10;;;12.70;99.90;;;;;;6198931;23;20016;-73
2023/12/25 07:40:49;;;;;;;1.42;0.10;;;12.70;99.90;;;;;;6202691;23;20004;-71
2023/12/25 07:43:15;;;;;;;0.30;0.10;;;12.70;99.90;;;;;;6201836;23;20007;-67
2023/12/25 07:45:40;;;;;;;0.30;0.00;;;12.80;99.90;;;;;;6198831;23;20005;-63
2023/12/25 07:48:06;;;;;;;0.20;0.10;;;12.90;99.90;;;;;;6201484;23;20023;-71
2023/12/25 07:50:32;;;;;;;0.15;0.00;;;12.90;99.90;;;;;;6200749;23;20013;-74
2023/12/25 07:52:58;;;;;;;0.05;0.00;;;12.90;99.90;;;;;;6200999;23;19996;-73
2023/12/25 07:55:24;;;;;;;0.50;0.10;;;12.90;99.90;;;;;;6200375;23;20009;-73
2023/12/25 07:57:49;;;;;;;0.20;0.08;;;12.90;99.90;;;;;;6201517;23;20062;-74
2023/12/25 08:00:15;;;;;;;0.10;0.03;;;13.00;99.90;;;;;;6198617;23;20485;-75
2023/12/25 08:02:41;;;;;;;0.10;0.10;;;13.10;99.90;;;;;;6200814;23;20407;-70
2023/12/25 08:05:06;;;;;;;0.10;0.10;;;13.10;99.90;;;;;;6200823;23;20005;-67
2023/12/25 08:07:32;;;;;;;0.10;0.00;;;13.10;99.90;;;;;;6200432;23;20349;-66
2023/12/25 08:09:58;;;;;;;1.30;0.20;;;13.10;99.90;;;;;;6200388;23;20094;-72
2023/12/25 08:12:24;;;;;;;0.52;0.10;;;13.20;99.90;;;;;;6202613;23;20000;-65
2023/12/25 08:14:49;;;;;;;0.40;0.13;;;13.20;99.90;;;;;;6200036;23;20443;-64
2023/12/25 08:17:17;;;;;;;1.10;0.00;;;13.30;99.90;;;;;;6202152;23;20024;-65
2023/12/25 08:19:42;;;;;;;0.17;0.08;;;13.20;99.90;;;;;;6200927;23;20082;-65
2023/12/25 08:22:08;;;;;;;0.45;0.15;;;13.30;99.90;;;;;;6198243;23;20005;-65
2023/12/25 08:24:36;;;;;;;0.00;0.00;;;13.30;99.90;;;;;;6202420;23;20005;-64
2023/12/25 08:27:03;;;;;;;0.28;0.10;;;13.30;99.90;;;;;;6200386;23;20000;-65
2023/12/25 08:29:28;;;;;;;0.50;0.10;;;13.20;99.90;;;;;;6199725;23;20020;-70
2023/12/25 08:31:55;;;;;;;0.63;0.20;;;13.20;99.90;;;;;;6201450;23;20009;-69
2023/12/25 08:34:23;;;;;;;0.10;0.05;;;13.20;99.90;;;;;;6201527;23;20001;-68
2023/12/25 08:36:49;;;;;;;0.43;0.20;;;13.20;99.90;;;;;;6201089;23;20337;-70
2023/12/25 08:39:15;;;;;;;0.15;0.00;;;13.20;99.90;;;;;;6201483;23;20008;-75
2023/12/25 08:41:41;;;;;;;0.15;0.10;;;13.30;99.90;;;;;;6197539;23;20008;-75
2023/12/25 08:44:07;;;;;;;1.45;0.17;;;13.30;99.90;;;;;;6200139;23;20032;-69
2023/12/25 08:46:33;;;;;;;1.23;0.20;;;13.30;99.90;;;;;;6200111;23;20012;-73
2023/12/25 08:48:59;;;;;;;0.00;0.00;;;13.30;99.90;;;;;;6199005;23;20087;-69
2023/12/25 08:51:25;;;;;;;0.00;0.00;;;13.30;99.90;;;;;;6200431;23;20017;-67
2023/12/25 08:53:51;;;;;;;0.85;0.10;;;13.30;99.90;;;;;;6200926;23;20059;-67
2023/12/25 08:56:25;;;;;;;0.52;0.08;;;13.30;99.90;;;;;;6200568;23;20004;-73
2023/12/25 08:58:50;;;;;;;0.22;0.10;;;13.30;99.90;;;;;;6199078;23;20214;-70
2023/12/25 09:01:16;;;;;;;0.10;0.10;;;13.30;99.90;;;;;;6199771;23;20004;-74
2023/12/25 09:03:42;;;;;;;0.63;0.15;;;13.30;99.90;;;;;;6201058;23;20003;-71
2023/12/25 09:06:07;;;;;;;0.10;0.10;;;13.30;99.90;;;;;;6199220;23;20005;-73
2023/12/25 09:08:33;;;;;;;0.65;0.35;;;13.30;99.90;;;;;;6200648;23;20004;-76
2023/12/25 09:10:58;;;;;;;0.63;0.10;;;13.20;99.90;;;;;;6200373;23;20020;-76
2023/12/25 09:13:24;;;;;;;5.13;0.20;;;13.30;99.90;;;;;;6198811;23;20399;-69
2023/12/25 09:15:50;;;;;;;0.10;0.10;;;13.30;99.90;;;;;;6199848;23;20008;-77
2023/12/25 09:18:16;;;;;;;0.00;0.00;;;13.30;99.90;;;;;;6200926;23;20000;-70
2023/12/25 09:20:41;;;;;;;0.38;0.10;;;13.30;99.90;;;;;;6198565;23;20103;-66
2023/12/25 09:23:07;;;;;;;1.27;0.30;;;13.20;99.90;;;;;;6198951;23;20439;-65
2023/12/25 09:25:32;;;;;;;0.28;0.10;;;13.20;99.90;;;;;;6200329;23;20004;-66
2023/12/25 09:27:58;;;;;;;0.95;0.35;;;13.20;99.90;;;;;;6199768;23;20393;-73
2023/12/25 09:30:24;;;;;;;0.68;0.30;;;13.20;99.90;;;;;;6200312;23;20016;-65
2023/12/25 09:32:49;;;;;;;0.38;0.05;;;13.20;99.90;;;;;;6200798;23;20005;-72
2023/12/25 09:35:15;;;;;;;0.47;0.10;;;13.20;99.90;;;;;;6198899;23;20009;-66
2023/12/25 09:37:42;;;;;;;0.17;0.10;;;13.20;99.90;;;;;;6200418;23;20028;-71
2023/12/25 09:40:08;;;;;;;1.23;0.20;;;13.30;99.90;;;;;;6199042;23;20501;-70
2023/12/25 09:42:34;;;;;;;4.00;0.63;;;13.40;99.90;;;;;;6200558;23;20012;-77
2023/12/25 09:45:00;;;;;;;1.27;0.13;;;13.50;99.90;;;;;;6199870;23;20338;-73
2023/12/25 09:47:27;;;;;;;0.50;0.20;;;13.50;99.90;;;;;;6200782;23;20012;-73
2023/12/25 09:49:55;;;;;;;0.32;0.10;;;13.50;99.90;;;;;;6199173;23;20016;-69
2023/12/25 09:52:22;;;;;;;0.10;0.10;;;13.60;99.90;;;;;;6198778;23;20070;-70
2023/12/25 09:54:47;;;;;;;0.47;0.10;;;13.60;99.90;;;;;;6199413;23;20323;-70
2023/12/25 09:57:14;;;;;;;0.10;0.10;;;13.70;99.90;;;;;;6196915;23;20063;-78
2023/12/25 09:59:42;;;;;;;0.85;0.17;;;13.70;99.90;;;;;;6199035;23;20697;-71
2023/12/25 10:02:09;;;;;;;0.35;0.17;;;13.70;99.90;;;;;;6198940;23;20023;-77
2023/12/25 10:04:37;;;;;;;4.13;0.25;;;13.80;99.90;;;;;;6199700;23;20009;-77
2023/12/25 10:07:02;;;;;;;0.28;0.10;;;13.80;99.90;;;;;;6199986;23;20020;-70
2023/12/25 10:09:30;;;;;;;0.40;0.10;;;13.80;99.90;;;;;;6197668;23;20012;-71
2023/12/25 10:11:55;;;;;;;0.68;0.20;;;13.80;99.90;;;;;;6197787;23;20005;-70
2023/12/25 10:14:21;;;;;;;0.50;0.20;;;13.70;99.90;;;;;;6197713;23;20073;-80
2023/12/25 10:16:48;;;;;;;0.00;0.00;;;13.70;99.90;;;;;;6198675;23;20443;-72
2023/12/25 10:19:15;;;;;;;0.20;0.20;;;13.60;99.90;;;;;;6197712;23;20027;-70
2023/12/25 10:21:44;;;;;;;0.55;0.20;;;13.60;99.90;;;;;;6201665;23;20009;-71
2023/12/25 10:24:14;;;;;;;0.10;0.00;;;13.50;99.90;;;;;;6200272;23;20009;-72
2023/12/25 10:26:40;;;;;;;1.48;0.10;;;13.40;99.90;;;;;;6201186;23;20688;-72
2023/12/25 10:29:09;;;;;;;0.10;0.10;;;13.40;99.90;;;;;;6200084;23;20001;-71
2023/12/25 10:31:43;;;;;;;0.60;0.13;;;13.40;99.90;;;;;;6202718;23;20174;-70
2023/12/25 10:34:09;;;;;;;1.00;0.32;;;13.40;99.90;;;;;;6199600;23;20005;-72
2023/12/25 10:36:35;;;;;;;0.15;0.10;;;13.40;99.90;;;;;;6202754;23;20011;-78
2023/12/25 10:39:01;;;;;;;0.40;0.10;;;13.40;99.90;;;;;;6196660;23;20001;-70
2023/12/25 10:41:33;;;;;;;0.60;0.20;;;13.40;99.90;;;;;;6198632;23;20009;-71
2023/12/25 10:44:03;;;;;;;0.10;0.00;;;13.40;99.90;;;;;;6201127;23;20016;-72
2023/12/25 10:46:37;;;;;;;0.20;0.10;;;13.40;99.90;;;;;;6201088;23;20005;-76
2023/12/25 10:49:05;;;;;;;1.20;0.25;;;13.50;99.90;;;;;;6200648;23;20067;-71
2023/12/25 10:51:43;;;;;;;0.22;0.00;;;13.50;99.90;;;;;;6199941;23;20042;-71
2023/12/25 10:54:10;;;;;;;0.15;0.10;;;13.50;99.90;;;;;;6200669;23;20013;-71
2023/12/25 10:56:43;;;;;;;0.60;0.25;;;13.60;99.90;;;;;;6202558;23;20004;-76
2023/12/25 10:59:24;;;;;;;0.65;0.20;;;13.70;99.90;;;;;;6199302;23;20425;-76
2023/12/25 11:01:52;;;;;;;0.50;0.10;;;13.70;99.90;;;;;;6201063;23;20008;-74
2023/12/25 11:04:20;;;;;;;1.27;0.20;;;13.80;99.90;;;;;;6199439;23;20007;-71
2023/12/25 11:06:46;;;;;;;0.50;0.10;;;13.80;99.90;;;;;;6200286;23;20032;-70
2023/12/25 11:09:14;;;;;;;0.20;0.10;;;13.90;99.90;;;;;;6201586;23;20295;-74
2023/12/25 11:11:41;;;;;;;0.13;0.10;;;13.90;99.90;;;;;;6199111;23;20036;-70
2023/12/25 11:14:07;;;;;;;2.60;0.38;;;14.00;99.90;;;;;;6199441;23;20066;-69
2023/12/25 11:16:35;;;;;;;0.20;0.20;;;13.90;99.90;;;;;;6200613;23;20076;-74
2023/12/25 11:19:01;;;;;;;0.68;0.10;;;13.90;99.90;;;;;;6200288;23;20089;-71
2023/12/25 11:21:32;;;;;;;0.22;0.13;;;13.90;99.90;;;;;;6200192;23;20012;-72
2023/12/25 11:23:59;;;;;;;0.50;0.20;;;13.90;99.90;;;;;;6199940;23;20005;-73
2023/12/25 11:26:29;;;;;;;0.30;0.25;;;14.00;99.90;;;;;;6200661;23;20427;-75
2023/12/25 11:29:03;;;;;;;0.30;0.20;;;14.00;99.90;;;;;;6200082;23;20119;-76
2023/12/25 11:31:39;;;;;;;0.28;0.10;;;13.90;99.90;;;;;;6201149;23;20020;-71
2023/12/25 11:34:24;;;;;;;0.45;0.20;;;13.90;99.90;;;;;;6196431;23;20359;-79
2023/12/25 11:36:55;;;;;;;2.22;0.50;;;13.80;99.90;;;;;;6198172;23;20004;-79
2023/12/25 11:39:23;;;;;;;0.45;0.20;;;13.80;99.90;;;;;;6197708;23;20008;-69
2023/12/25 11:41:49;;;;;;;2.13;0.45;;;13.80;99.90;;;;;;6200473;23;20008;-68
2023/12/25 11:44:18;;;;;;;0.32;0.30;;;13.80;99.90;;;;;;6200226;23;20446;-70
2023/12/25 11:46:47;;;;;;;0.57;0.38;;;13.70;99.90;;;;;;6200685;23;20016;-66
2023/12/25 11:49:15;;;;;;;0.35;0.30;;;13.70;99.90;;;;;;6200123;23;20005;-76
2023/12/25 11:51:48;;;;;;;0.60;0.40;;;13.60;99.90;;;;;;6202188;23;20012;-64
2023/12/25 11:54:13;;;;;;;1.02;0.30;;;13.60;99.90;;;;;;6200038;23;20349;-68
2023/12/25 11:56:39;;;;;;;0.50;0.40;;;13.60;99.90;;;;;;6201729;23;20092;-77
2023/12/25 11:59:05;;;;;;;0.63;0.38;;;13.60;99.90;;;;;;6200597;23;20315;-71
2023/12/25 12:01:31;;;;;;;1.40;0.70;;;13.50;99.90;;;;;;6201288;23;20090;-70
2023/12/25 12:03:57;;;;;;;0.60;0.50;;;13.50;99.90;;;;;;6200059;23;20004;-74
2023/12/25 12:06:22;;;;;;;2.90;0.77;;;13.50;99.90;;;;;;6202198;23;20005;-70
2023/12/25 12:08:48;;;;;;;0.70;0.35;;;13.50;99.90;;;;;;6174731;23;20312;-69
2023/12/25 12:11:15;;;;;;;0.90;0.45;;;13.40;99.90;;;;;;6195479;23;20084;-65
2023/12/25 12:13:42;;;;;;;0.50;0.50;;;13.40;99.90;;;;;;6200734;23;20055;-73
2023/12/25 12:16:08;;;;;;;2.25;1.83;;;13.30;99.90;;;;;;6202569;23;20008;-77
2023/12/25 12:18:34;;;;;;;1.42;0.57;;;13.30;99.90;;;;;;6199709;23;20000;-67
2023/12/25 12:21:00;;;;;;;1.35;0.75;;;13.30;99.90;;;;;;6201314;23;20005;-67
2023/12/25 12:23:31;;;;;;;2.15;1.08;;;13.30;99.90;;;;;;6201958;23;20000;-70
2023/12/25 12:25:57;;;;;;;2.22;0.90;;;13.30;99.90;;;;;;6199660;23;20005;-76
2023/12/25 12:28:23;;;;;;;1.60;1.08;;;13.20;99.90;;;;;;6201519;23;20008;-69
2023/12/25 12:30:48;;;;;;;1.08;0.57;;;13.30;99.90;;;;;;6199880;23;20450;-69
2023/12/25 12:33:15;;;;;;;1.42;0.50;;;13.30;99.90;;;;;;6200974;23;20008;-70
2023/12/25 12:35:41;;;;;;;0.77;0.70;;;13.30;99.90;;;;;;6200068;23;20110;-74
2023/12/25 12:38:10;;;;;;;0.60;0.35;;;13.30;99.90;;;;;;6201051;23;20489;-73
2023/12/25 12:40:35;;;;;;;0.50;0.50;;;13.30;99.90;;;;;;6200386;23;20012;-71
2023/12/25 12:43:01;;;;;;;0.70;0.55;;;13.40;99.90;;;;;;6200811;23;20088;-73